Time;durP1;ratioP1;P1;durP2;ratioP2;P2;SDS_P1;SDS_P2;PMS_P1;PMS_P2;Temp;Humidity;BMP_temperature;BMP_pressure;BME280_temperature;BME280_humidity;BME280_pressure;Samples;Min_cycle;Max_cycle;Signal;HPM_P1;HPM_P2
2023/12/22 00:01:06;;;;;;;2.67;0.73;;;5.50;99.90;;;;;;5053506;28;20359;-54
2023/12/22 00:03:31;;;;;;;2.03;0.80;;;5.50;99.90;;;;;;5035837;28;20025;-57
2023/12/22 00:05:57;;;;;;;3.27;0.53;;;5.50;99.90;;;;;;5053614;28;20025;-53
2023/12/22 00:08:23;;;;;;;4.27;0.93;;;5.40;99.90;;;;;;5053390;28;20440;-54
2023/12/22 00:10:49;;;;;;;5.20;0.70;;;5.40;99.90;;;;;;5053352;28;20208;-56
2023/12/22 00:13:15;;;;;;;2.80;0.50;;;5.40;99.90;;;;;;5053486;28;20126;-55
2023/12/22 00:15:42;;;;;;;2.87;0.50;;;5.40;99.90;;;;;;5035577;28;20120;-52
2023/12/22 00:18:08;;;;;;;4.40;0.80;;;5.40;99.90;;;;;;5053176;28;20029;-52
2023/12/22 00:20:33;;;;;;;1.97;0.70;;;5.50;99.90;;;;;;5053037;28;20075;-52
2023/12/22 00:22:59;;;;;;;2.90;0.70;;;5.50;99.90;;;;;;5053293;28;20497;-57
2023/12/22 00:25:25;;;;;;;4.93;0.93;;;5.50;99.90;;;;;;5052555;28;20033;-55
2023/12/22 00:27:51;;;;;;;1.77;0.50;;;5.60;99.90;;;;;;5053029;28;20067;-55
2023/12/22 00:30:17;;;;;;;8.17;0.90;;;5.60;99.90;;;;;;5053044;28;20057;-56
2023/12/22 00:32:42;;;;;;;8.87;0.70;;;5.60;99.90;;;;;;5052955;28;20061;-54
2023/12/22 00:35:08;;;;;;;2.53;0.47;;;5.60;99.90;;;;;;5052968;28;20036;-56
2023/12/22 00:37:34;;;;;;;5.33;0.70;;;5.70;99.90;;;;;;5052927;28;20029;-52
2023/12/22 00:39:59;;;;;;;3.30;0.67;;;5.70;99.90;;;;;;5052772;28;20108;-54
2023/12/22 00:42:25;;;;;;;6.70;0.70;;;5.80;99.90;;;;;;5052727;28;20047;-53
2023/12/22 00:44:51;;;;;;;4.10;0.70;;;5.80;99.90;;;;;;5052880;28;20036;-52
2023/12/22 00:47:17;;;;;;;9.33;1.00;;;5.90;99.90;;;;;;5052604;28;20046;-54
2023/12/22 00:49:42;;;;;;;4.00;1.00;;;5.90;99.90;;;;;;5052583;28;20106;-53
2023/12/22 00:52:08;;;;;;;3.13;0.70;;;5.90;99.90;;;;;;5052688;28;20029;-57
2023/12/22 00:54:34;;;;;;;6.63;0.77;;;5.90;99.90;;;;;;5052622;28;20025;-54
2023/12/22 00:57:00;;;;;;;4.80;0.70;;;6.00;99.90;;;;;;5052449;28;20029;-54
2023/12/22 00:59:26;;;;;;;2.93;0.60;;;5.90;99.90;;;;;;5052476;28;20040;-55
2023/12/22 01:01:51;;;;;;;7.30;0.90;;;5.90;99.90;;;;;;5052902;28;20515;-55
2023/12/22 01:04:17;;;;;;;4.30;0.80;;;6.00;99.90;;;;;;5052361;28;20393;-51
2023/12/22 01:06:42;;;;;;;4.23;0.90;;;6.00;99.90;;;;;;5052501;28;20116;-55
2023/12/22 01:09:08;;;;;;;5.43;1.33;;;6.00;99.90;;;;;;5052080;28;20025;-57
2023/12/22 01:11:33;;;;;;;10.60;1.10;;;5.90;99.90;;;;;;5052335;28;20029;-53
2023/12/22 01:13:59;;;;;;;4.27;0.80;;;5.90;99.90;;;;;;5052612;28;20029;-53
2023/12/22 01:16:25;;;;;;;10.17;1.03;;;6.00;99.90;;;;;;5034300;28;20398;-57
2023/12/22 01:18:50;;;;;;;6.57;0.90;;;6.00;99.90;;;;;;5051955;28;20090;-55
2023/12/22 01:21:17;;;;;;;6.87;0.70;;;5.90;99.90;;;;;;5052031;28;20029;-55
2023/12/22 01:23:42;;;;;;;5.10;0.77;;;5.90;99.90;;;;;;5052238;28;20477;-56
2023/12/22 01:26:08;;;;;;;8.97;1.20;;;6.00;99.90;;;;;;5052086;28;20085;-53
2023/12/22 01:28:34;;;;;;;5.90;1.43;;;6.10;99.90;;;;;;5051786;28;20023;-56
2023/12/22 01:31:00;;;;;;;6.70;1.07;;;6.00;99.90;;;;;;5052415;28;20450;-57
2023/12/22 01:33:26;;;;;;;4.90;0.93;;;6.00;99.90;;;;;;5051939;28;20035;-56
2023/12/22 01:35:51;;;;;;;5.20;0.93;;;6.00;99.90;;;;;;5052008;28;20036;-56
2023/12/22 01:38:17;;;;;;;3.53;0.70;;;6.10;99.90;;;;;;5051788;28;20036;-55
2023/12/22 01:40:43;;;;;;;1.90;0.70;;;6.00;99.90;;;;;;5051549;28;20082;-55
2023/12/22 01:43:09;;;;;;;4.93;0.90;;;6.00;99.90;;;;;;5051967;28;20033;-57
2023/12/22 01:45:34;;;;;;;2.20;0.60;;;6.00;99.90;;;;;;5051883;28;20482;-56
2023/12/22 01:48:02;;;;;;;3.40;0.60;;;6.00;99.90;;;;;;5051559;28;20041;-54
2023/12/22 01:50:28;;;;;;;4.33;0.80;;;5.90;99.90;;;;;;5051713;28;20568;-57
2023/12/22 01:52:54;;;;;;;5.03;0.77;;;5.80;99.90;;;;;;5051790;28;20036;-54
2023/12/22 01:55:21;;;;;;;3.10;0.70;;;5.60;99.90;;;;;;5051700;28;20474;-57
2023/12/22 01:57:47;;;;;;;2.57;0.43;;;5.50;99.90;;;;;;5051489;28;20128;-53
2023/12/22 02:00:14;;;;;;;4.60;0.77;;;5.50;99.90;;;;;;5051536;28;20025;-54
2023/12/22 02:02:42;;;;;;;2.33;0.37;;;5.40;99.90;;;;;;5051585;28;20029;-54
2023/12/22 02:05:11;;;;;;;2.25;0.40;;;5.30;99.90;;;;;;5051683;28;20072;-56
2023/12/22 02:07:41;;;;;;;1.50;0.35;;;5.30;99.90;;;;;;5051561;28;20099;-53
2023/12/22 02:10:10;;;;;;;6.07;0.67;;;5.20;99.90;;;;;;5051696;28;20037;-53
2023/12/22 02:12:37;;;;;;;0.85;0.43;;;5.10;99.90;;;;;;5051674;28;20036;-54
2023/12/22 02:15:04;;;;;;;3.53;0.50;;;5.00;99.90;;;;;;5033529;28;20029;-53
2023/12/22 02:17:54;;;;;;;1.03;0.40;;;5.00;99.90;;;;;;5051411;28;20033;-54
2023/12/22 02:20:21;;;;;;;2.30;0.30;;;5.10;99.90;;;;;;5051399;28;20029;-54
2023/12/22 02:22:54;;;;;;;2.37;0.43;;;4.90;99.90;;;;;;5051451;28;20505;-53
2023/12/22 02:25:20;;;;;;;1.23;0.40;;;4.80;99.90;;;;;;5051561;28;20025;-53
2023/12/22 02:27:49;;;;;;;5.23;0.80;;;4.80;99.90;;;;;;5051050;28;20029;-56
2023/12/22 02:30:25;;;;;;;4.60;0.63;;;4.80;99.90;;;;;;5051389;28;20051;-53
2023/12/22 02:32:54;;;;;;;6.83;0.97;;;4.70;99.90;;;;;;5051339;28;20104;-56
2023/12/22 02:35:22;;;;;;;3.10;0.68;;;4.80;99.90;;;;;;5033602;28;20129;-55
2023/12/22 02:37:49;;;;;;;6.90;0.60;;;4.80;99.90;;;;;;5051201;28;20521;-53
2023/12/22 02:40:17;;;;;;;4.80;1.70;;;4.90;99.90;;;;;;5051086;28;20059;-55
2023/12/22 02:42:43;;;;;;;6.13;0.67;;;4.90;99.90;;;;;;5064328;22;20409;-52
2023/12/22 02:45:17;;;;;;;3.77;0.70;;;4.90;99.90;;;;;;5051299;28;20029;-54
2023/12/22 02:47:43;;;;;;;1.50;0.60;;;5.00;99.90;;;;;;5033435;28;20497;-52
2023/12/22 02:50:09;;;;;;;5.93;1.17;;;4.90;99.90;;;;;;5069297;28;20545;-54
2023/12/22 02:52:35;;;;;;;2.00;0.30;;;4.90;99.90;;;;;;5074835;28;20237;-52
2023/12/22 02:55:02;;;;;;;4.13;0.60;;;5.00;99.90;;;;;;5074920;28;20028;-53
2023/12/22 02:57:27;;;;;;;4.83;0.60;;;5.10;99.90;;;;;;5074645;28;20029;-55
2023/12/22 02:59:53;;;;;;;4.83;0.77;;;5.00;99.90;;;;;;5074723;28;20465;-55
2023/12/22 03:02:18;;;;;;;2.30;0.33;;;5.00;99.90;;;;;;5074633;28;20044;-54
2023/12/22 03:04:46;;;;;;;4.17;0.67;;;5.00;99.90;;;;;;5074803;28;20166;-54
2023/12/22 03:07:12;;;;;;;2.97;0.70;;;5.00;99.90;;;;;;5074506;28;20401;-54
2023/12/22 03:09:37;;;;;;;6.37;0.73;;;5.00;99.90;;;;;;5056636;28;20081;-54
2023/12/22 03:12:03;;;;;;;7.03;1.33;;;5.00;99.90;;;;;;5074523;28;20392;-54
2023/12/22 03:14:33;;;;;;;5.23;0.73;;;5.00;99.90;;;;;;5074541;28;20028;-54
2023/12/22 03:16:59;;;;;;;6.25;1.13;;;5.10;99.90;;;;;;5074564;28;20443;-55
2023/12/22 03:19:25;;;;;;;5.40;0.83;;;5.10;99.90;;;;;;5074368;28;20036;-55
2023/12/22 03:21:51;;;;;;;3.07;0.83;;;5.10;99.90;;;;;;5074235;28;20040;-54
2023/12/22 03:24:19;;;;;;;6.63;0.90;;;5.10;99.90;;;;;;5074355;28;20028;-52
2023/12/22 03:26:45;;;;;;;3.23;0.70;;;5.10;99.90;;;;;;5074584;28;20096;-51
2023/12/22 03:29:11;;;;;;;2.83;0.50;;;5.00;99.90;;;;;;5074366;28;20029;-55
2023/12/22 03:31:37;;;;;;;4.43;0.60;;;5.00;99.90;;;;;;5074168;28;20031;-54
2023/12/22 03:34:02;;;;;;;9.73;1.10;;;4.90;99.90;;;;;;5074257;28;20028;-50
2023/12/22 03:36:28;;;;;;;8.10;1.40;;;4.90;99.90;;;;;;5074084;28;20457;-54
2023/12/22 03:38:53;;;;;;;3.20;0.50;;;4.90;99.90;;;;;;5073873;28;20052;-53
2023/12/22 03:41:19;;;;;;;4.10;0.90;;;4.80;99.90;;;;;;5073759;28;20500;-54
2023/12/22 03:43:44;;;;;;;8.20;1.23;;;4.90;99.90;;;;;;5056105;28;20108;-52
2023/12/22 03:46:10;;;;;;;6.03;1.20;;;4.90;99.90;;;;;;5074100;28;20025;-52
2023/12/22 03:48:36;;;;;;;6.20;1.03;;;4.80;99.90;;;;;;5073607;28;20025;-56
2023/12/22 03:51:01;;;;;;;1.97;0.70;;;4.80;99.90;;;;;;5055895;28;20039;-55
2023/12/22 03:53:27;;;;;;;6.00;0.80;;;4.80;99.90;;;;;;5073876;28;20111;-55
2023/12/22 03:55:52;;;;;;;2.03;0.60;;;4.90;99.90;;;;;;5073730;28;20174;-54
2023/12/22 03:58:18;;;;;;;5.60;0.67;;;4.90;99.90;;;;;;5073518;28;20024;-54
2023/12/22 04:00:43;;;;;;;3.30;0.43;;;4.90;99.90;;;;;;5072549;28;20435;-55
2023/12/22 04:03:09;;;;;;;4.17;0.63;;;4.90;99.90;;;;;;5073682;28;20031;-54
2023/12/22 04:05:35;;;;;;;4.37;0.73;;;4.90;99.90;;;;;;5073506;28;20028;-55
2023/12/22 04:08:00;;;;;;;8.53;1.13;;;4.90;99.90;;;;;;5073402;28;20478;-54
2023/12/22 04:10:26;;;;;;;5.40;1.57;;;4.90;99.90;;;;;;5073407;28;20056;-54
2023/12/22 04:12:51;;;;;;;9.07;1.90;;;4.90;99.90;;;;;;5073367;28;20466;-52
2023/12/22 04:15:17;;;;;;;7.73;1.10;;;4.90;99.90;;;;;;5073547;28;20227;-52
2023/12/22 04:17:42;;;;;;;5.60;0.77;;;4.90;99.90;;;;;;5073153;28;20033;-55
2023/12/22 04:20:08;;;;;;;7.13;1.30;;;5.00;99.90;;;;;;5055164;28;20044;-54
2023/12/22 04:22:34;;;;;;;8.60;1.07;;;5.00;99.90;;;;;;5073183;28;20055;-52
2023/12/22 04:25:00;;;;;;;3.03;0.83;;;5.00;99.90;;;;;;5073178;28;20020;-52
2023/12/22 04:27:26;;;;;;;11.63;1.60;;;5.00;99.90;;;;;;5073060;28;20064;-54
2023/12/22 04:29:52;;;;;;;5.83;1.23;;;5.10;99.90;;;;;;5073057;28;20199;-55
2023/12/22 04:32:18;;;;;;;6.17;1.00;;;5.10;99.90;;;;;;5072971;28;20035;-54
2023/12/22 04:34:43;;;;;;;9.30;1.20;;;5.20;99.90;;;;;;5072878;28;20032;-55
2023/12/22 04:37:09;;;;;;;7.50;1.50;;;5.30;99.90;;;;;;5072820;28;20028;-55
2023/12/22 04:39:35;;;;;;;5.40;0.63;;;5.30;99.90;;;;;;5072919;28;20204;-54
2023/12/22 04:42:00;;;;;;;8.20;1.17;;;5.40;99.90;;;;;;5072646;28;20059;-55
2023/12/22 04:44:26;;;;;;;8.83;1.70;;;5.50;99.90;;;;;;5072853;28;20482;-50
2023/12/22 04:46:51;;;;;;;7.60;1.30;;;5.60;99.90;;;;;;5054944;28;20028;-54
2023/12/22 04:49:18;;;;;;;8.33;1.57;;;5.60;99.90;;;;;;5072434;28;20182;-54
2023/12/22 04:51:43;;;;;;;5.63;1.70;;;5.60;99.90;;;;;;5072699;28;20115;-52
2023/12/22 04:54:09;;;;;;;4.37;1.33;;;5.70;99.90;;;;;;5072581;28;20048;-52
2023/12/22 04:56:35;;;;;;;7.40;1.17;;;5.80;99.90;;;;;;5072700;28;20028;-55
2023/12/22 04:59:00;;;;;;;2.93;0.93;;;5.80;99.90;;;;;;5072348;28;20031;-54
2023/12/22 05:01:26;;;;;;;5.53;1.43;;;5.80;99.90;;;;;;5072385;28;20064;-54
2023/12/22 05:03:53;;;;;;;7.50;0.93;;;5.80;99.90;;;;;;5072429;28;20024;-55
2023/12/22 05:06:19;;;;;;;7.00;1.30;;;5.80;99.90;;;;;;5072419;28;20033;-55
2023/12/22 05:08:45;;;;;;;9.67;1.20;;;5.80;99.90;;;;;;5072158;28;20111;-54
2023/12/22 05:11:12;;;;;;;5.93;1.53;;;5.70;99.90;;;;;;5071946;28;20024;-55
2023/12/22 05:13:37;;;;;;;8.33;1.50;;;5.60;99.90;;;;;;5072247;28;20039;-54
2023/12/22 05:16:04;;;;;;;6.13;1.47;;;5.60;99.90;;;;;;5072325;28;20029;-55
2023/12/22 05:18:30;;;;;;;4.83;1.30;;;5.50;99.90;;;;;;5071857;28;20032;-56
2023/12/22 05:20:55;;;;;;;9.00;1.63;;;5.40;99.90;;;;;;5072069;28;20093;-54
2023/12/22 05:23:21;;;;;;;2.53;0.73;;;5.40;99.90;;;;;;5072242;28;20038;-55
2023/12/22 05:25:47;;;;;;;5.30;0.70;;;5.20;99.90;;;;;;5072022;28;20030;-53
2023/12/22 05:28:12;;;;;;;3.13;0.80;;;5.20;99.90;;;;;;5071953;28;20028;-54
2023/12/22 05:30:38;;;;;;;5.47;0.90;;;5.10;99.90;;;;;;5071891;28;20028;-56
2023/12/22 05:33:04;;;;;;;3.73;0.80;;;5.10;99.90;;;;;;5071934;28;20093;-55
2023/12/22 05:35:29;;;;;;;1.83;0.60;;;5.10;99.90;;;;;;5054096;28;20036;-54
2023/12/22 05:37:55;;;;;;;3.13;0.40;;;5.10;99.90;;;;;;5071822;28;20060;-53
2023/12/22 05:40:20;;;;;;;8.40;0.80;;;5.00;99.90;;;;;;5071782;28;20029;-51
2023/12/22 05:42:46;;;;;;;5.37;0.83;;;5.00;99.90;;;;;;5071751;28;20024;-54
2023/12/22 05:45:14;;;;;;;4.73;0.50;;;5.00;99.90;;;;;;5071983;28;20199;-53
2023/12/22 05:47:39;;;;;;;4.27;0.60;;;5.00;99.90;;;;;;5071588;28;20033;-53
2023/12/22 05:50:05;;;;;;;4.10;0.90;;;5.00;99.90;;;;;;5071853;28;20032;-55
2023/12/22 05:52:31;;;;;;;1.50;0.43;;;5.00;99.90;;;;;;5071776;28;20112;-54
2023/12/22 05:54:56;;;;;;;4.50;1.10;;;4.90;99.90;;;;;;5053834;28;20099;-54
2023/12/22 05:57:24;;;;;;;2.43;0.73;;;5.00;99.90;;;;;;5071561;28;20024;-52
2023/12/22 05:59:50;;;;;;;6.30;0.70;;;5.00;99.90;;;;;;5071637;28;20064;-53
2023/12/22 06:02:16;;;;;;;3.10;0.70;;;5.00;99.90;;;;;;5071534;28;20068;-52
2023/12/22 06:04:41;;;;;;;7.20;1.10;;;5.00;99.90;;;;;;5071757;28;20028;-51
2023/12/22 06:07:07;;;;;;;5.17;0.60;;;5.10;99.90;;;;;;5071567;28;20060;-52
2023/12/22 06:09:32;;;;;;;2.53;0.70;;;5.20;99.90;;;;;;5071492;28;20066;-56
2023/12/22 06:11:58;;;;;;;5.83;0.80;;;5.20;99.90;;;;;;5071615;28;20124;-53
2023/12/22 06:14:24;;;;;;;5.00;0.67;;;5.20;99.90;;;;;;5071647;28;20029;-55
2023/12/22 06:16:50;;;;;;;4.80;0.90;;;5.20;99.90;;;;;;5071496;28;20032;-54
2023/12/22 06:19:16;;;;;;;7.53;1.10;;;5.20;99.90;;;;;;5071368;28;20029;-54
2023/12/22 06:21:42;;;;;;;8.20;1.67;;;5.30;99.90;;;;;;5071388;28;20485;-55
2023/12/22 06:24:08;;;;;;;6.27;0.83;;;5.30;99.90;;;;;;5073995;28;20043;-49
2023/12/22 06:26:33;;;;;;;7.60;1.23;;;5.20;99.90;;;;;;5075534;28;20457;-53
2023/12/22 06:28:59;;;;;;;4.10;0.90;;;5.30;99.90;;;;;;5075166;28;20112;-53
2023/12/22 06:31:25;;;;;;;3.97;0.87;;;5.30;99.90;;;;;;5075272;28;20036;-55
2023/12/22 06:33:51;;;;;;;4.63;0.83;;;5.30;99.90;;;;;;5075285;28;20469;-55
2023/12/22 06:36:24;;;;;;;2.83;1.10;;;5.30;99.90;;;;;;5057401;28;20469;-52
2023/12/22 06:38:51;;;;;;;9.07;1.90;;;5.30;99.90;;;;;;5075162;28;20059;-55
2023/12/22 06:41:21;;;;;;;4.27;1.03;;;5.30;99.90;;;;;;5074903;28;20028;-54
2023/12/22 06:43:46;;;;;;;4.03;0.80;;;5.30;99.90;;;;;;5075145;28;20104;-54
2023/12/22 06:46:16;;;;;;;7.67;1.00;;;5.30;99.90;;;;;;5074856;28;20142;-54
2023/12/22 06:48:42;;;;;;;8.90;1.33;;;5.30;99.90;;;;;;5056953;28;20473;-52
2023/12/22 06:51:07;;;;;;;10.27;0.80;;;5.30;99.90;;;;;;5074889;28;20039;-53
2023/12/22 06:53:33;;;;;;;6.87;1.30;;;5.40;99.90;;;;;;5074919;28;20035;-56
2023/12/22 06:55:58;;;;;;;5.77;1.20;;;5.40;99.90;;;;;;5074881;28;20064;-55
2023/12/22 06:58:25;;;;;;;3.23;0.70;;;5.50;99.90;;;;;;5074657;28;20130;-54
2023/12/22 07:00:51;;;;;;;4.57;1.37;;;5.50;99.90;;;;;;5074557;28;20036;-54
2023/12/22 07:03:19;;;;;;;9.57;1.57;;;5.60;99.90;;;;;;5074769;28;20036;-55
2023/12/22 07:05:44;;;;;;;7.60;1.40;;;5.60;99.90;;;;;;5075119;28;20465;-56
2023/12/22 07:08:10;;;;;;;7.03;0.83;;;5.60;99.90;;;;;;5056604;28;20031;-56
2023/12/22 07:10:36;;;;;;;11.70;1.40;;;5.70;99.90;;;;;;5074650;28;20435;-55
2023/12/22 07:13:01;;;;;;;7.67;0.97;;;5.80;99.90;;;;;;5074522;28;20032;-54
2023/12/22 07:15:28;;;;;;;7.50;1.40;;;6.00;99.90;;;;;;5074568;28;20082;-55
2023/12/22 07:17:53;;;;;;;7.17;1.23;;;6.10;99.90;;;;;;5074588;28;20037;-54
2023/12/22 07:20:19;;;;;;;5.37;0.90;;;6.20;99.90;;;;;;5074376;28;20086;-55
2023/12/22 07:22:45;;;;;;;14.40;2.17;;;6.40;99.90;;;;;;5074202;28;20029;-54
2023/12/22 07:25:11;;;;;;;10.20;1.23;;;6.50;99.90;;;;;;5074448;28;20449;-54
2023/12/22 07:27:37;;;;;;;7.67;1.30;;;6.60;99.90;;;;;;5074271;28;20103;-56
2023/12/22 07:30:03;;;;;;;8.33;1.30;;;6.70;99.90;;;;;;5056254;28;20028;-54
2023/12/22 07:32:29;;;;;;;9.37;2.77;;;6.80;99.90;;;;;;5074386;28;20431;-54
2023/12/22 07:34:55;;;;;;;6.93;1.23;;;6.90;99.90;;;;;;5074027;28;20039;-55
2023/12/22 07:37:21;;;;;;;9.57;1.47;;;6.90;99.90;;;;;;5073956;28;20029;-54
2023/12/22 07:39:46;;;;;;;10.03;1.30;;;7.00;99.90;;;;;;5073980;28;20036;-56
2023/12/22 07:42:12;;;;;;;6.93;1.10;;;7.00;99.90;;;;;;5073791;28;20037;-55
2023/12/22 07:44:37;;;;;;;6.40;1.67;;;7.10;99.90;;;;;;5074168;28;20032;-55
2023/12/22 07:47:03;;;;;;;6.93;2.50;;;7.10;99.90;;;;;;5073943;28;20024;-55
2023/12/22 07:49:29;;;;;;;10.63;1.37;;;7.10;99.90;;;;;;5073789;28;20078;-54
2023/12/22 07:51:54;;;;;;;6.20;1.50;;;7.10;99.90;;;;;;5056010;28;20032;-55
2023/12/22 07:54:20;;;;;;;7.80;2.10;;;7.10;99.90;;;;;;5073832;28;20020;-52
2023/12/22 07:56:46;;;;;;;8.73;1.20;;;7.20;99.90;;;;;;5073860;28;20115;-55
2023/12/22 07:59:11;;;;;;;7.27;1.17;;;7.20;99.90;;;;;;5073622;28;20439;-55
2023/12/22 08:01:37;;;;;;;8.03;1.70;;;7.20;99.90;;;;;;5073608;28;20032;-55
2023/12/22 08:04:02;;;;;;;7.13;1.40;;;7.20;99.90;;;;;;5073683;28;20056;-56
2023/12/22 08:06:28;;;;;;;10.87;1.50;;;7.40;99.90;;;;;;5073631;28;20028;-56
2023/12/22 08:08:54;;;;;;;8.83;1.50;;;7.40;99.90;;;;;;5055506;28;20051;-53
2023/12/22 08:11:20;;;;;;;12.83;2.20;;;7.50;99.90;;;;;;5073390;28;20060;-53
2023/12/22 08:13:46;;;;;;;13.50;2.13;;;7.50;99.90;;;;;;5073425;28;20079;-54
2023/12/22 08:16:12;;;;;;;9.50;1.47;;;7.50;99.90;;;;;;5073496;28;20040;-56
2023/12/22 08:18:38;;;;;;;6.97;1.70;;;7.50;99.90;;;;;;5073187;28;20040;-56
2023/12/22 08:21:04;;;;;;;10.17;2.00;;;7.60;99.90;;;;;;5073047;28;20072;-53
2023/12/22 08:23:29;;;;;;;7.97;1.77;;;7.60;99.90;;;;;;5073223;28;20120;-54
2023/12/22 08:25:55;;;;;;;12.23;1.97;;;7.60;99.90;;;;;;5073225;28;20119;-54
2023/12/22 08:28:20;;;;;;;11.10;1.90;;;7.60;99.90;;;;;;5073061;28;20028;-56
2023/12/22 08:30:46;;;;;;;16.07;2.23;;;7.60;99.90;;;;;;5073023;28;20035;-55
2023/12/22 08:33:12;;;;;;;11.97;2.07;;;7.60;99.90;;;;;;5055306;28;20112;-56
2023/12/22 08:35:38;;;;;;;22.07;2.47;;;7.60;99.90;;;;;;5073011;28;20033;-56
2023/12/22 08:38:03;;;;;;;20.43;2.83;;;7.60;99.90;;;;;;5072813;28;20048;-56
2023/12/22 08:40:29;;;;;;;11.43;2.27;;;7.60;99.90;;;;;;5072765;28;20039;-56
2023/12/22 08:42:59;;;;;;;14.57;2.60;;;7.70;99.90;;;;;;5072135;22;20493;-54
2023/12/22 08:45:26;;;;;;;19.10;2.50;;;7.80;99.90;;;;;;5052824;28;20036;-55
2023/12/22 08:47:51;;;;;;;13.83;1.93;;;7.90;99.90;;;;;;5052955;28;20037;-56
2023/12/22 08:50:17;;;;;;;12.50;2.23;;;7.90;99.90;;;;;;5052750;28;20433;-56
2023/12/22 08:52:42;;;;;;;13.33;2.57;;;7.90;99.90;;;;;;5052919;28;20112;-55
2023/12/22 08:55:08;;;;;;;10.30;2.00;;;7.90;99.90;;;;;;5052644;28;20517;-52
2023/12/22 08:57:34;;;;;;;15.57;3.00;;;8.00;99.90;;;;;;5052545;28;20040;-53
2023/12/22 08:59:59;;;;;;;20.20;3.90;;;8.00;99.90;;;;;;5052701;28;20029;-55
2023/12/22 09:02:26;;;;;;;23.57;2.80;;;7.90;99.90;;;;;;5052509;28;20033;-55
2023/12/22 09:04:52;;;;;;;17.47;2.67;;;8.00;99.90;;;;;;5052662;28;20037;-55
2023/12/22 09:07:17;;;;;;;15.07;2.37;;;8.00;99.90;;;;;;5052426;28;20020;-53
2023/12/22 09:09:43;;;;;;;11.60;2.97;;;8.10;99.90;;;;;;5052250;28;20028;-53
2023/12/22 09:12:08;;;;;;;11.27;1.67;;;8.10;99.90;;;;;;5034413;28;20025;-55
2023/12/22 09:14:35;;;;;;;14.10;2.03;;;8.20;99.90;;;;;;5034658;28;20032;-56
2023/12/22 09:17:00;;;;;;;14.20;2.47;;;8.30;99.90;;;;;;5052356;28;20430;-56
2023/12/22 09:19:26;;;;;;;11.83;2.00;;;8.30;99.90;;;;;;5052251;28;20111;-56
2023/12/22 09:21:52;;;;;;;12.70;3.07;;;8.20;99.90;;;;;;5052089;28;20036;-56
2023/12/22 09:24:17;;;;;;;19.80;2.93;;;8.30;99.90;;;;;;5052081;28;20028;-55
2023/12/22 09:26:43;;;;;;;16.57;2.60;;;8.30;99.90;;;;;;5052193;28;20045;-56
2023/12/22 09:29:08;;;;;;;9.90;2.33;;;8.30;99.90;;;;;;5051949;28;20021;-55
2023/12/22 09:31:34;;;;;;;14.47;1.83;;;8.30;99.90;;;;;;5051983;28;20029;-56
2023/12/22 09:34:00;;;;;;;13.13;2.03;;;8.30;99.90;;;;;;5052004;28;20044;-56
2023/12/22 09:36:25;;;;;;;13.93;2.40;;;8.30;99.90;;;;;;5052018;28;20044;-56
2023/12/22 09:38:51;;;;;;;14.50;2.00;;;8.30;99.90;;;;;;5051708;28;20091;-56
2023/12/22 09:41:16;;;;;;;15.30;2.50;;;8.40;99.90;;;;;;5051630;28;20085;-52
2023/12/22 09:43:45;;;;;;;9.60;2.10;;;8.40;99.90;;;;;;5051978;28;20037;-56
2023/12/22 09:46:12;;;;;;;9.30;2.22;;;8.30;99.90;;;;;;5051969;28;20039;-54
2023/12/22 09:48:39;;;;;;;11.10;1.90;;;8.20;99.90;;;;;;5051632;28;20021;-56
2023/12/22 09:51:06;;;;;;;10.80;2.00;;;8.20;99.90;;;;;;5051743;28;20037;-54
2023/12/22 09:53:33;;;;;;;6.37;1.70;;;8.20;99.90;;;;;;5051901;28;20029;-52
2023/12/22 09:56:00;;;;;;;18.73;3.30;;;8.20;99.90;;;;;;5052243;28;20136;-56
2023/12/22 09:58:25;;;;;;;13.17;1.40;;;8.20;99.90;;;;;;5050753;28;20033;-56
2023/12/22 10:00:53;;;;;;;10.13;1.50;;;8.20;99.90;;;;;;5051404;28;20033;-56
2023/12/22 10:03:20;;;;;;;13.90;1.73;;;8.10;99.90;;;;;;5051689;28;20032;-54
2023/12/22 10:05:46;;;;;;;10.80;2.17;;;8.20;99.90;;;;;;5051690;28;20025;-56
2023/12/22 10:08:12;;;;;;;12.57;1.87;;;8.20;99.90;;;;;;5051359;28;20028;-56
2023/12/22 10:10:43;;;;;;;11.27;2.03;;;8.30;99.90;;;;;;5051707;28;20039;-55
2023/12/22 10:13:09;;;;;;;9.70;1.70;;;8.30;99.90;;;;;;5051663;28;20025;-56
2023/12/22 10:15:43;;;;;;;5.33;1.33;;;8.40;99.90;;;;;;5051589;28;20496;-52
2023/12/22 10:18:09;;;;;;;7.50;2.43;;;8.40;99.90;;;;;;5051395;28;20112;-55
2023/12/22 10:20:35;;;;;;;4.40;1.33;;;8.60;99.90;;;;;;5051289;28;20029;-55
2023/12/22 10:23:01;;;;;;;6.27;1.40;;;8.60;99.90;;;;;;5051526;28;20028;-56
2023/12/22 10:25:30;;;;;;;6.20;1.30;;;8.60;99.90;;;;;;5051476;28;20061;-55
2023/12/22 10:27:56;;;;;;;7.75;1.23;;;8.60;99.90;;;;;;5051320;28;20139;-54
2023/12/22 10:30:23;;;;;;;9.30;1.10;;;8.60;99.90;;;;;;5051495;28;20137;-56
2023/12/22 10:32:51;;;;;;;8.17;1.43;;;8.70;99.90;;;;;;5051281;28;20040;-56
2023/12/22 10:35:17;;;;;;;3.83;1.00;;;8.70;99.90;;;;;;5051348;28;20037;-54
2023/12/22 10:37:42;;;;;;;4.40;1.30;;;8.60;99.90;;;;;;5033400;28;20043;-56
2023/12/22 10:40:09;;;;;;;6.63;1.03;;;8.60;99.90;;;;;;5051305;28;20025;-56
2023/12/22 10:42:35;;;;;;;6.37;1.30;;;8.60;99.90;;;;;;5051139;28;20036;-56
2023/12/22 10:45:01;;;;;;;4.13;1.10;;;8.60;99.90;;;;;;5051374;28;20060;-55
2023/12/22 10:47:28;;;;;;;7.60;1.43;;;8.60;99.90;;;;;;5051108;28;20065;-56
2023/12/22 10:49:54;;;;;;;3.33;1.13;;;8.50;99.90;;;;;;5051086;28;20033;-56
2023/12/22 10:52:20;;;;;;;4.70;1.37;;;8.40;99.90;;;;;;5051158;28;20033;-57
2023/12/22 10:54:48;;;;;;;4.60;1.13;;;8.30;99.90;;;;;;5051223;28;20040;-53
2023/12/22 10:57:17;;;;;;;7.60;1.00;;;8.30;99.90;;;;;;5051069;28;20405;-54
2023/12/22 10:59:47;;;;;;;6.97;1.30;;;8.20;99.90;;;;;;5051140;28;20494;-55
2023/12/22 11:02:18;;;;;;;7.73;1.20;;;8.10;99.90;;;;;;5050934;28;20040;-56
2023/12/22 11:05:08;;;;;;;3.43;0.90;;;8.10;99.90;;;;;;5051344;28;20426;-54
2023/12/22 11:07:37;;;;;;;5.23;1.30;;;8.00;99.90;;;;;;5051117;28;20482;-55
2023/12/22 11:10:05;;;;;;;5.50;1.20;;;8.00;99.90;;;;;;5053384;28;20032;-55
2023/12/22 11:12:38;;;;;;;4.57;1.60;;;8.00;99.90;;;;;;5054616;28;20075;-56
2023/12/22 11:15:08;;;;;;;2.30;0.90;;;8.00;99.90;;;;;;5054679;28;20033;-56
2023/12/22 11:17:36;;;;;;;3.27;1.17;;;8.00;99.90;;;;;;5036718;28;20470;-55
2023/12/22 11:20:04;;;;;;;5.03;1.30;;;8.00;99.90;;;;;;5054539;28;20029;-56
2023/12/22 11:22:32;;;;;;;7.70;1.67;;;8.10;99.90;;;;;;5054419;28;20037;-55
2023/12/22 11:25:00;;;;;;;10.53;2.60;;;8.20;99.90;;;;;;5054596;28;20036;-54
2023/12/22 11:27:26;;;;;;;6.00;1.27;;;8.20;99.90;;;;;;5054607;28;20478;-54
2023/12/22 11:29:52;;;;;;;3.80;1.10;;;8.30;99.90;;;;;;5054731;28;20462;-53
2023/12/22 11:32:19;;;;;;;4.23;1.07;;;8.40;99.90;;;;;;5055606;28;20116;-55
2023/12/22 11:34:46;;;;;;;4.23;1.10;;;8.50;99.90;;;;;;5055435;28;20115;-55
2023/12/22 11:37:13;;;;;;;3.20;0.83;;;8.50;99.90;;;;;;5054212;28;20496;-55
2023/12/22 11:39:40;;;;;;;3.43;1.10;;;8.70;99.90;;;;;;5054078;28;20504;-55
2023/12/22 11:42:10;;;;;;;1.80;0.90;;;8.90;99.90;;;;;;5053921;28;20124;-55
2023/12/22 11:44:35;;;;;;;4.70;0.87;;;9.00;99.90;;;;;;5054128;28;20056;-56
2023/12/22 11:47:09;;;;;;;2.80;0.90;;;9.00;99.90;;;;;;5054007;28;20053;-56
2023/12/22 11:49:38;;;;;;;4.27;1.10;;;9.00;99.90;;;;;;5054095;28;20035;-55
2023/12/22 11:52:11;;;;;;;6.75;1.25;;;9.20;99.90;;;;;;5054116;28;20064;-55
2023/12/22 11:54:51;;;;;;;4.97;1.50;;;9.20;99.90;;;;;;5054185;28;20456;-55
2023/12/22 11:57:29;;;;;;;6.83;0.90;;;9.30;99.90;;;;;;5054114;28;20082;-55
2023/12/22 11:59:55;;;;;;;5.78;1.30;;;9.40;99.90;;;;;;5054053;28;20036;-51
2023/12/22 12:02:22;;;;;;;3.50;0.90;;;9.40;99.90;;;;;;5054073;28;20037;-55
2023/12/22 12:04:48;;;;;;;4.53;1.33;;;9.50;99.90;;;;;;5053738;28;20371;-56
2023/12/22 12:07:39;;;;;;;3.00;0.97;;;9.50;99.90;;;;;;5035876;28;20052;-56
2023/12/22 12:10:07;;;;;;;4.20;1.27;;;9.50;99.90;;;;;;5053907;28;20036;-56
2023/12/22 12:12:34;;;;;;;3.23;0.80;;;9.60;99.90;;;;;;5035783;28;20036;-56
2023/12/22 12:15:13;;;;;;;3.07;1.13;;;9.70;99.90;;;;;;5053573;28;20032;-56
2023/12/22 12:17:41;;;;;;;4.97;0.95;;;9.80;99.90;;;;;;5053475;28;20083;-56
2023/12/22 12:20:08;;;;;;;3.87;1.13;;;9.80;99.90;;;;;;5053204;28;20029;-55
2023/12/22 12:22:34;;;;;;;3.30;1.53;;;9.90;99.90;;;;;;5052676;28;20527;-55
2023/12/22 12:25:01;;;;;;;6.87;1.13;;;10.00;99.90;;;;;;5053423;28;20021;-55
2023/12/22 12:27:27;;;;;;;3.50;1.47;;;10.00;99.90;;;;;;5053094;28;20112;-53
2023/12/22 12:29:53;;;;;;;2.87;1.10;;;10.10;99.90;;;;;;5053110;28;20136;-55
2023/12/22 12:32:22;;;;;;;2.70;1.20;;;10.10;99.90;;;;;;5053083;28;20021;-56
2023/12/22 12:34:49;;;;;;;4.30;1.13;;;10.10;99.90;;;;;;5053260;28;20375;-54
2023/12/22 12:37:16;;;;;;;5.53;1.07;;;10.00;99.90;;;;;;5052946;28;20029;-50
2023/12/22 12:39:43;;;;;;;2.87;0.80;;;10.00;99.90;;;;;;5052986;28;20032;-54
2023/12/22 12:42:14;;;;;;;4.77;0.97;;;10.10;99.90;;;;;;5052200;28;20044;-56
2023/12/22 12:44:40;;;;;;;4.67;0.80;;;9.90;99.90;;;;;;5034170;28;20143;-56
2023/12/22 12:47:14;;;;;;;2.67;1.23;;;9.60;99.90;;;;;;5052162;28;20036;-56
2023/12/22 12:49:39;;;;;;;5.10;1.07;;;9.60;99.90;;;;;;5051804;28;20043;-55
2023/12/22 12:52:06;;;;;;;4.43;1.00;;;9.50;99.90;;;;;;5051871;28;20025;-55